createdAt,value
2019-02-07T00:00:47.643Z,10.50
2019-02-07T00:09:32.831Z,9.30
2019-02-07T00:15:18.209Z,9.07
2019-02-07T00:21:26.087Z,10.13
2019-02-07T00:24:26.547Z,10.30
2019-02-07T00:30:11.422Z,10.23
2019-02-07T00:33:12.681Z,9.30
2019-02-07T00:36:13.143Z,9.60
2019-02-07T00:39:33.846Z,10.10
2019-02-07T00:48:43.632Z,9.67
2019-02-07T00:51:49.323Z,10.27
2019-02-07T00:54:50.670Z,9.97
2019-02-07T01:03:41.953Z,10.07
2019-02-07T01:06:42.699Z,10.47
2019-02-07T01:12:28.277Z,9.80
2019-02-07T01:15:29.802Z,10.47
2019-02-07T01:21:16.658Z,9.03
2019-02-07T01:24:17.168Z,9.73
2019-02-07T01:27:18.308Z,9.37
2019-02-07T01:33:23.645Z,10.07
2019-02-07T01:36:24.209Z,9.77
2019-02-07T01:39:25.460Z,9.83
2019-02-07T01:42:26.008Z,9.07
2019-02-07T01:45:27.301Z,9.03
2019-02-07T01:48:26.828Z,9.70
2019-02-07T01:57:40.267Z,10.10
2019-02-07T02:03:25.284Z,8.83
2019-02-07T02:09:10.570Z,8.90
2019-02-07T02:14:51.054Z,9.10
2019-02-07T02:17:51.535Z,9.17
2019-02-07T02:23:38.967Z,8.87
2019-02-07T02:29:24.731Z,8.57
2019-02-07T02:32:45.137Z,8.80
2019-02-07T02:35:46.355Z,8.57
2019-02-07T02:42:17.482Z,8.60
2019-02-07T02:45:16.667Z,8.80
2019-02-07T02:51:23.193Z,9.43
2019-02-07T02:54:23.830Z,9.20
2019-02-07T03:03:20.512Z,8.93
2019-02-07T03:09:44.007Z,8.90
2019-02-07T03:12:44.307Z,8.73
2019-02-07T03:15:49.622Z,9.63
2019-02-07T03:21:32.148Z,9.27
2019-02-07T03:24:33.334Z,8.53
2019-02-07T03:30:16.938Z,9.83
2019-02-07T03:36:02.733Z,9.37
2019-02-07T03:41:49.105Z,9.53
2019-02-07T03:44:50.387Z,9.67
2019-02-07T03:50:34.299Z,9.87
2019-02-07T03:53:47.668Z,9.23
2019-02-07T03:57:07.356Z,10.73
2019-02-07T04:02:53.056Z,9.97
2019-02-07T04:05:53.595Z,10.40
2019-02-07T04:11:40.738Z,10.67
2019-02-07T04:17:28.497Z,11.53
2019-02-07T04:23:34.475Z,10.87
2019-02-07T04:26:35.884Z,10.57
2019-02-07T04:32:20.853Z,11.53
2019-02-07T04:38:04.190Z,10.33
2019-02-07T04:41:22.166Z,9.83
2019-02-07T04:44:23.545Z,10.73
2019-02-07T04:47:24.100Z,10.77
2019-02-07T04:53:08.922Z,11.40
2019-02-07T04:58:54.397Z,10.37
2019-02-07T05:01:54.978Z,10.00
2019-02-07T05:08:20.946Z,10.80
2019-02-07T05:14:05.946Z,11.10
2019-02-07T05:20:11.727Z,10.40
2019-02-07T05:23:12.200Z,10.63
2019-02-07T05:29:51.179Z,9.33
2019-02-07T05:35:36.171Z,11.03
2019-02-07T05:41:21.046Z,10.07
2019-02-07T05:44:47.409Z,10.77
2019-02-07T05:50:26.207Z,10.93
2019-02-07T05:59:22.829Z,9.57
2019-02-07T06:02:29.163Z,9.53
2019-02-07T06:11:50.065Z,10.17
2019-02-07T06:17:35.436Z,10.13
2019-02-07T06:23:20.085Z,10.30
2019-02-07T06:26:40.421Z,9.97
2019-02-07T06:33:11.855Z,9.50
2019-02-07T06:36:21.499Z,9.27
2019-02-07T06:42:06.699Z,9.83
2019-02-07T06:47:51.606Z,10.50
2019-02-07T06:53:40.642Z,10.70
2019-02-07T06:56:59.975Z,10.03
2019-02-07T07:02:52.938Z,11.17
2019-02-07T07:11:54.481Z,11.27
2019-02-07T07:14:55.763Z,10.60
2019-02-07T07:21:26.770Z,10.93
2019-02-07T07:24:33.025Z,10.40
2019-02-07T07:31:18.148Z,11.57
2019-02-07T07:34:19.743Z,10.67
2019-02-07T07:43:31.259Z,10.83
2019-02-07T07:49:37.002Z,10.20
2019-02-07T07:55:22.104Z,10.07
2019-02-07T08:04:14.624Z,9.00
2019-02-07T08:13:45.687Z,10.37
2019-02-07T08:16:47.189Z,9.70
2019-02-07T08:23:10.958Z,10.53
2019-02-07T08:26:11.199Z,10.67
2019-02-07T08:29:21.391Z,10.23
2019-02-07T08:36:05.894Z,11.47
2019-02-07T08:42:55.451Z,10.37
2019-02-07T08:49:01.128Z,11.27
2019-02-07T08:52:00.346Z,10.77
2019-02-07T08:55:21.931Z,10.77
2019-02-07T08:58:22.188Z,10.20
2019-02-07T09:04:48.119Z,10.17
2019-02-07T09:08:13.432Z,10.53
2019-02-07T09:17:04.118Z,10.80
2019-02-07T09:23:09.052Z,10.53
2019-02-07T09:28:47.693Z,9.80
2019-02-07T09:34:54.154Z,10.17
2019-02-07T09:38:04.398Z,9.60
2019-02-07T09:43:54.831Z,9.63
2019-02-07T09:52:50.681Z,10.17
2019-02-07T09:55:50.106Z,9.53
2019-02-07T09:58:51.663Z,9.00
2019-02-07T10:02:04.095Z,10.00
2019-02-07T10:05:25.586Z,8.63
2019-02-07T10:11:36.186Z,9.83
2019-02-07T10:14:36.802Z,9.37
2019-02-07T10:20:15.538Z,10.00
2019-02-07T10:29:15.963Z,10.13
2019-02-07T10:35:41.538Z,9.77
2019-02-07T10:44:51.592Z,10.47
2019-02-07T10:47:52.895Z,9.33
2019-02-07T10:50:54.106Z,8.87
2019-02-07T10:56:40.714Z,10.53
2019-02-07T11:03:05.471Z,9.60
2019-02-07T11:08:50.328Z,9.57
2019-02-07T11:15:06.559Z,9.03
2019-02-07T11:18:07.466Z,10.60
2019-02-07T11:21:28.862Z,11.13
2019-02-07T11:30:37.150Z,9.13
2019-02-07T11:33:37.772Z,8.90
2019-02-07T11:42:47.991Z,7.43
2019-02-07T11:48:53.419Z,6.20
2019-02-07T11:54:38.910Z,5.40
2019-02-07T11:57:39.348Z,6.03
2019-02-07T12:00:39.935Z,5.73
2019-02-07T12:03:40.785Z,6.00
2019-02-07T12:09:46.403Z,5.90
2019-02-07T12:16:49.588Z,4.83
2019-02-07T12:19:50.614Z,4.83
2019-02-07T12:23:13.816Z,4.87
2019-02-07T12:26:15.141Z,4.30
2019-02-07T12:29:16.841Z,4.37
2019-02-07T12:32:17.179Z,4.80
2019-02-07T12:35:38.786Z,4.73
2019-02-07T12:41:24.311Z,4.53
2019-02-07T12:47:09.706Z,4.07
2019-02-07T12:52:54.351Z,4.03
2019-02-07T12:55:54.896Z,3.73
2019-02-07T13:01:42.705Z,3.43
2019-02-07T13:07:28.042Z,3.60
2019-02-07T13:13:13.703Z,2.90
2019-02-07T13:16:23.241Z,2.90
2019-02-07T13:22:19.409Z,2.87
2019-02-07T13:28:07.411Z,3.37
2019-02-07T13:37:02.541Z,2.33
2019-02-07T13:40:03.691Z,2.70
2019-02-07T13:49:39.910Z,1.97
2019-02-07T13:53:08.144Z,2.57
2019-02-07T13:58:53.576Z,2.73
2019-02-07T14:04:38.756Z,2.43
2019-02-07T14:10:45.234Z,3.00
2019-02-07T14:13:51.822Z,2.07
2019-02-07T14:17:02.398Z,2.30
2019-02-07T14:20:04.001Z,2.77
2019-02-07T14:26:44.217Z,5.10
2019-02-07T14:29:45.760Z,3.70
2019-02-07T14:35:31.089Z,3.30
2019-02-07T14:38:51.542Z,3.10
2019-02-07T14:42:02.777Z,3.40
2019-02-07T14:45:03.918Z,2.77
2019-02-07T14:50:49.778Z,2.50
2019-02-07T14:56:35.246Z,2.80
2019-02-07T15:02:20.964Z,3.50
2019-02-07T15:05:22.289Z,2.60
2019-02-07T15:08:23.322Z,2.60
2019-02-07T15:11:24.837Z,2.50
2019-02-07T15:17:05.192Z,2.83
2019-02-07T15:23:11.642Z,4.40
2019-02-07T15:28:51.818Z,2.83
2019-02-07T15:31:54.925Z,3.13
2019-02-07T15:37:40.607Z,3.23
2019-02-07T15:43:26.510Z,3.37
2019-02-07T15:49:11.824Z,3.07
2019-02-07T15:52:12.431Z,3.17
2019-02-07T15:55:13.796Z,3.10
2019-02-07T15:58:14.275Z,2.73
2019-02-07T16:04:00.720Z,2.80
2019-02-07T16:07:01.321Z,2.63
2019-02-07T16:10:02.534Z,3.33
2019-02-07T16:13:03.716Z,2.67
2019-02-07T16:18:48.922Z,2.50
2019-02-07T16:21:50.174Z,2.93
2019-02-07T16:24:51.416Z,2.70
2019-02-07T16:30:37.107Z,2.50
2019-02-07T16:36:22.588Z,2.47
2019-02-07T16:39:22.206Z,2.43
2019-02-07T16:45:08.717Z,2.37
2019-02-07T16:51:00.194Z,2.83
2019-02-07T16:56:40.168Z,6.23
2019-02-07T17:05:37.955Z,2.70
2019-02-07T17:08:38.561Z,2.63
2019-02-07T17:11:39.722Z,2.30
2019-02-07T17:17:24.864Z,2.23
2019-02-07T17:20:25.319Z,2.47
2019-02-07T17:23:26.495Z,2.70
2019-02-07T17:26:27.551Z,1.73
2019-02-07T17:29:28.729Z,2.27
2019-02-07T17:32:29.732Z,2.27
2019-02-07T17:38:14.391Z,2.00
2019-02-07T17:43:59.835Z,2.10
2019-02-07T17:47:00.574Z,2.33
2019-02-07T17:53:06.309Z,3.43
2019-02-07T17:58:45.108Z,2.20
2019-02-07T18:11:26.486Z,1.93
2019-02-07T18:14:32.295Z,2.50
2019-02-07T18:20:16.829Z,2.20
2019-02-07T18:23:18.226Z,1.60
2019-02-07T18:29:09.129Z,2.23
2019-02-07T18:32:10.486Z,1.33
2019-02-07T18:35:17.191Z,1.90
2019-02-07T18:38:18.100Z,2.17
2019-02-07T18:44:07.487Z,2.23
2019-02-07T18:49:52.963Z,1.40
2019-02-07T18:52:53.461Z,1.47
2019-02-07T18:59:38.367Z,1.47
2019-02-07T19:08:36.271Z,1.37
2019-02-07T19:18:26.343Z,1.33
2019-02-07T19:21:26.905Z,2.00
2019-02-07T19:24:27.433Z,2.17
2019-02-07T19:27:45.715Z,2.10
2019-02-07T19:33:57.467Z,1.83
2019-02-07T19:36:59.946Z,1.60
2019-02-07T19:40:01.582Z,1.60
2019-02-07T19:49:20.988Z,1.43
2019-02-07T19:52:21.551Z,2.10
2019-02-07T20:01:44.594Z,1.80
2019-02-07T20:07:49.091Z,1.67
2019-02-07T20:13:56.546Z,2.13
2019-02-07T20:16:58.822Z,1.83
2019-02-07T20:22:45.564Z,1.33
2019-02-07T20:25:46.932Z,1.80
2019-02-07T20:31:53.855Z,1.33
2019-02-07T20:38:33.535Z,1.83
2019-02-07T20:44:59.414Z,2.10
2019-02-07T20:51:11.526Z,1.73
2019-02-07T20:57:35.575Z,1.97
2019-02-07T21:03:41.018Z,1.80
2019-02-07T21:10:22.394Z,2.33
2019-02-07T21:13:23.415Z,1.53
2019-02-07T21:19:13.638Z,1.83
2019-02-07T21:22:14.778Z,1.80
2019-02-07T21:25:16.360Z,2.40
2019-02-07T21:32:34.598Z,1.87
2019-02-07T21:35:37.053Z,1.90
2019-02-07T21:41:24.602Z,1.97
2019-02-07T21:44:25.842Z,1.80
2019-02-07T21:50:11.142Z,1.87
2019-02-07T21:55:56.038Z,1.97
2019-02-07T22:01:40.894Z,2.07
2019-02-07T22:04:45.499Z,2.30
2019-02-07T22:10:30.058Z,2.53
2019-02-07T22:16:15.719Z,2.33
2019-02-07T22:22:53.892Z,4.00
2019-02-07T22:25:55.233Z,5.77
2019-02-07T22:29:15.459Z,5.10
2019-02-07T22:35:44.110Z,2.10
2019-02-07T22:41:28.741Z,2.23
2019-02-07T22:47:13.709Z,2.40
2019-02-07T22:53:54.054Z,3.47
2019-02-07T22:56:57.710Z,3.80
2019-02-07T23:02:44.021Z,3.07
2019-02-07T23:08:29.191Z,2.43
2019-02-07T23:11:30.001Z,4.50
2019-02-07T23:21:16.129Z,3.77
2019-02-07T23:24:15.314Z,2.50
2019-02-07T23:27:15.832Z,2.43
2019-02-07T23:37:20.288Z,3.30
2019-02-07T23:43:04.849Z,3.50
2019-02-07T23:51:53.590Z,2.57
2019-02-07T23:54:53.375Z,2.97
2019-02-07T23:57:53.879Z,2.83
